Time;durP1;ratioP1;P1;durP2;ratioP2;P2;SDS_P1;SDS_P2;PMS_P1;PMS_P2;Temp;Humidity;BMP_temperature;BMP_pressure;BME280_temperature;BME280_humidity;BME280_pressure;Samples;Min_cycle;Max_cycle;Signal;HPM_P1;HPM_P2
2022/10/01 00:00:54;;;;;;;3.33;2.12;;;17.00;85.00;;;;;;10873689;32;20106;-76
2022/10/01 00:06:58;;;;;;;2.30;1.70;;;17.10;84.90;;;;;;10873607;32;20050;-76
2022/10/01 00:13:00;;;;;;;2.78;2.10;;;17.10;84.90;;;;;;10872508;32;20028;-77
2022/10/01 00:19:04;;;;;;;2.50;1.08;;;17.00;84.80;;;;;;10860240;32;20050;-77
2022/10/01 00:25:07;;;;;;;1.87;1.73;;;16.90;84.90;;;;;;10859833;32;20020;-76
2022/10/01 00:31:09;;;;;;;4.72;1.23;;;16.80;84.90;;;;;;10872760;32;20062;-76
2022/10/01 00:37:11;;;;;;;2.97;2.05;;;16.80;85.00;;;;;;10872525;32;20016;-77
2022/10/01 00:43:47;;;;;;;2.85;1.83;;;16.80;84.90;;;;;;10872215;32;20031;-77
2022/10/01 00:50:17;;;;;;;2.45;1.83;;;16.80;84.90;;;;;;10872253;32;20050;-77
2022/10/01 00:56:19;;;;;;;2.28;1.87;;;16.80;84.90;;;;;;10871866;32;20024;-76
2022/10/01 01:02:20;;;;;;;3.12;2.20;;;16.80;84.80;;;;;;10871600;32;20050;-77
2022/10/01 01:08:23;;;;;;;2.85;1.98;;;16.80;84.70;;;;;;10871118;32;20078;-77
2022/10/01 01:14:44;;;;;;;2.83;2.03;;;16.80;84.80;;;;;;10867585;32;20387;-77
2022/10/01 01:20:48;;;;;;;1.87;1.62;;;16.80;84.90;;;;;;10871030;32;20348;-76
2022/10/01 01:27:24;;;;;;;1.70;1.60;;;16.80;84.90;;;;;;10854701;32;20027;-76
2022/10/01 01:33:29;;;;;;;3.05;2.08;;;16.80;84.80;;;;;;10870810;32;20420;-77
2022/10/01 01:39:33;;;;;;;1.35;1.25;;;16.70;84.70;;;;;;10869262;32;20023;-76
2022/10/01 01:45:38;;;;;;;1.17;1.08;;;16.70;84.80;;;;;;10866136;32;20282;-77
2022/10/01 01:52:04;;;;;;;2.42;1.83;;;16.60;84.80;;;;;;10869861;32;20044;-76
2022/10/01 01:58:07;;;;;;;1.95;1.35;;;16.50;84.90;;;;;;10869877;32;20024;-76
2022/10/01 02:04:17;;;;;;;1.65;1.40;;;16.50;84.90;;;;;;10869541;32;20057;-76
2022/10/01 02:10:38;;;;;;;1.23;1.15;;;16.50;84.90;;;;;;10869477;32;20442;-77
2022/10/01 02:16:44;;;;;;;1.55;1.42;;;16.50;84.80;;;;;;10868301;32;20046;-76
2022/10/01 02:22:56;;;;;;;1.85;1.30;;;16.50;84.90;;;;;;10855645;32;20054;-77
2022/10/01 02:29:04;;;;;;;2.25;1.73;;;16.60;84.80;;;;;;10868719;32;20053;-76
2022/10/01 02:35:13;;;;;;;1.23;1.10;;;16.50;84.70;;;;;;10868634;32;20024;-76
2022/10/01 02:41:45;;;;;;;1.50;1.40;;;16.50;84.80;;;;;;10868283;32;20019;-76
2022/10/01 02:47:52;;;;;;;1.50;1.12;;;16.60;84.70;;;;;;10864118;32;20049;-77
2022/10/01 02:54:06;;;;;;;1.87;1.30;;;16.50;84.70;;;;;;10867804;32;20047;-77
2022/10/01 03:00:22;;;;;;;2.17;1.52;;;16.50;84.60;;;;;;10868935;32;20324;-76
2022/10/01 03:06:26;;;;;;;1.55;1.30;;;16.50;84.70;;;;;;10867623;32;20028;-76
2022/10/01 03:12:29;;;;;;;2.50;1.62;;;16.40;84.70;;;;;;10867376;32;20024;-76
2022/10/01 03:18:31;;;;;;;2.15;1.70;;;16.40;84.80;;;;;;10867214;32;20020;-76
2022/10/01 03:24:33;;;;;;;2.55;1.77;;;16.50;84.70;;;;;;10862770;32;20371;-76
2022/10/01 03:30:44;;;;;;;2.25;1.85;;;16.50;84.70;;;;;;10849262;32;20024;-76
2022/10/01 03:37:00;;;;;;;2.22;1.40;;;16.40;84.80;;;;;;10854588;32;20015;-76
2022/10/01 03:43:02;;;;;;;2.83;1.85;;;16.30;84.80;;;;;;10866771;32;20415;-76
2022/10/01 03:49:04;;;;;;;2.53;1.92;;;16.30;84.70;;;;;;10866484;32;20043;-76
2022/10/01 03:55:06;;;;;;;2.35;1.83;;;16.30;84.70;;;;;;10866443;32;20054;-76
2022/10/01 04:01:08;;;;;;;3.35;1.95;;;16.30;84.70;;;;;;10866357;32;20046;-77
2022/10/01 04:07:11;;;;;;;3.50;1.77;;;16.30;84.80;;;;;;10866280;32;20050;-77
2022/10/01 04:13:13;;;;;;;4.32;2.33;;;16.20;84.80;;;;;;10864676;32;20055;-76
2022/10/01 04:19:15;;;;;;;3.00;1.60;;;16.20;84.70;;;;;;10866084;32;20396;-76
2022/10/01 04:25:17;;;;;;;2.10;1.60;;;16.20;84.80;;;;;;10865961;32;20011;-76
2022/10/01 04:31:24;;;;;;;1.42;1.30;;;16.20;84.80;;;;;;10852598;32;20023;-76
2022/10/01 04:37:27;;;;;;;1.12;1.02;;;16.20;84.80;;;;;;10865703;32;20023;-76
2022/10/01 04:43:29;;;;;;;2.12;1.70;;;16.20;84.70;;;;;;10871053;32;20313;-76
2022/10/01 04:49:32;;;;;;;1.85;1.55;;;16.20;84.70;;;;;;10872076;32;20020;-76
2022/10/01 04:55:34;;;;;;;1.50;1.40;;;16.20;84.70;;;;;;10872058;32;20038;-77
2022/10/01 05:01:40;;;;;;;0.93;0.93;;;16.20;84.80;;;;;;10871647;32;20053;-76
2022/10/01 05:07:42;;;;;;;0.90;0.90;;;16.10;84.70;;;;;;10871459;32;20028;-77
2022/10/01 05:13:44;;;;;;;1.25;1.12;;;16.00;84.70;;;;;;10871301;32;20046;-77
2022/10/01 05:19:47;;;;;;;1.52;1.08;;;16.00;84.70;;;;;;10871134;32;20032;-77
2022/10/01 05:25:50;;;;;;;1.20;1.10;;;16.10;84.70;;;;;;10870941;32;20012;-76
2022/10/01 05:31:52;;;;;;;1.92;1.55;;;16.10;84.70;;;;;;10870840;32;20042;-76
2022/10/01 05:37:56;;;;;;;1.65;1.15;;;16.10;84.60;;;;;;10870656;32;20344;-76
2022/10/01 05:44:21;;;;;;;1.80;1.60;;;16.00;84.70;;;;;;10856792;32;20031;-77
2022/10/01 05:50:41;;;;;;;6.78;2.70;;;16.10;84.70;;;;;;10856810;32;20387;-77
2022/10/01 05:56:43;;;;;;;3.95;2.53;;;16.10;84.60;;;;;;10869937;32;20044;-77
2022/10/01 06:02:50;;;;;;;3.72;2.58;;;16.00;84.70;;;;;;10869651;32;20042;-76
2022/10/01 06:08:52;;;;;;;2.95;2.17;;;16.10;84.80;;;;;;10856243;32;20339;-77
2022/10/01 06:14:54;;;;;;;3.08;2.30;;;16.20;84.80;;;;;;10838528;27;20347;-77
2022/10/01 06:21:25;;;;;;;4.60;3.08;;;16.20;84.70;;;;;;10831894;32;20024;-77
2022/10/01 06:27:27;;;;;;;3.47;2.65;;;16.20;84.60;;;;;;10831626;32;20067;-77
2022/10/01 06:33:29;;;;;;;5.75;4.07;;;16.30;84.60;;;;;;10831619;32;20024;-77
2022/10/01 06:39:31;;;;;;;7.97;5.00;;;16.20;84.40;;;;;;10831376;32;20032;-77
2022/10/01 06:45:39;;;;;;;11.12;7.62;;;16.20;84.50;;;;;;10831058;32;20440;-76
2022/10/01 06:58:25;;;;;;;14.82;12.43;;;16.20;84.40;;;;;;10831818;32;20016;-75
2022/10/01 07:04:27;;;;;;;14.30;11.63;;;16.30;84.50;;;;;;10830014;32;20032;-77
2022/10/01 07:10:30;;;;;;;13.32;10.85;;;16.30;84.40;;;;;;10830313;32;20012;-77
2022/10/01 07:16:33;;;;;;;8.73;7.18;;;16.30;84.40;;;;;;10830178;32;20027;-77
2022/10/01 07:22:35;;;;;;;14.93;11.75;;;16.40;84.30;;;;;;10829703;32;20020;-77
2022/10/01 07:28:37;;;;;;;11.00;9.25;;;16.50;83.90;;;;;;10829776;32;20032;-77
2022/10/01 07:34:40;;;;;;;12.43;9.82;;;16.60;83.70;;;;;;10829818;32;20019;-76
2022/10/01 07:40:42;;;;;;;8.60;6.43;;;16.70;83.60;;;;;;10816318;33;20028;-77
2022/10/01 07:46:46;;;;;;;13.05;11.40;;;16.70;83.40;;;;;;10829786;33;20024;-77
2022/10/01 07:52:52;;;;;;;13.20;10.00;;;16.80;83.30;;;;;;10829695;33;20032;-76
2022/10/01 07:58:55;;;;;;;10.68;9.10;;;16.80;83.00;;;;;;10829288;33;20031;-76
2022/10/01 08:05:16;;;;;;;13.40;10.18;;;16.80;82.90;;;;;;10829142;33;20028;-76
2022/10/01 08:11:18;;;;;;;10.65;8.80;;;16.80;82.60;;;;;;10828698;33;20021;-77
2022/10/01 08:17:20;;;;;;;18.77;16.15;;;16.90;82.30;;;;;;10410375;33;12072335;-75
2022/10/01 08:23:22;;;;;;;16.42;13.75;;;16.90;82.20;;;;;;10796081;33;20415;-75
2022/10/01 08:29:24;;;;;;;20.42;18.33;;;17.00;82.00;;;;;;10796312;33;20040;-76
2022/10/01 08:35:28;;;;;;;19.77;14.77;;;17.00;82.00;;;;;;10759457;33;20056;-76
2022/10/01 08:41:43;;;;;;;22.20;15.20;;;17.00;81.80;;;;;;10787120;32;20427;-75
2022/10/01 08:48:02;;;;;;;13.52;12.13;;;17.10;81.60;;;;;;10830180;32;20032;-76
2022/10/01 08:54:22;;;;;;;12.57;10.98;;;17.10;81.10;;;;;;10818675;33;20054;-76
2022/10/01 09:00:26;;;;;;;14.45;12.00;;;17.20;81.20;;;;;;10831747;32;20078;-77
2022/10/01 09:06:28;;;;;;;18.20;16.30;;;17.30;81.10;;;;;;10834611;32;20028;-76
2022/10/01 09:12:51;;;;;;;13.73;11.05;;;17.30;81.00;;;;;;10834367;32;20189;-77
2022/10/01 09:19:16;;;;;;;13.80;12.15;;;17.40;80.80;;;;;;10831576;32;20090;-75
2022/10/01 09:25:24;;;;;;;14.27;10.88;;;17.50;80.50;;;;;;10833497;32;20020;-76
2022/10/01 09:31:34;;;;;;;12.10;10.80;;;17.50;80.10;;;;;;10833462;32;20059;-76
2022/10/01 09:37:52;;;;;;;16.42;13.18;;;17.60;79.20;;;;;;10833599;32;20024;-76
2022/10/01 09:43:55;;;;;;;16.30;13.05;;;17.70;79.00;;;;;;10829028;33;20402;-76
2022/10/01 09:49:59;;;;;;;16.67;9.45;;;17.70;78.90;;;;;;10832983;32;20033;-76
2022/10/01 09:56:08;;;;;;;10.43;8.18;;;17.80;78.70;;;;;;10829521;32;20058;-76
2022/10/01 10:02:28;;;;;;;;;;;18.00;78.20;;;;;;10832823;32;20051;-76
2022/10/01 10:08:35;;;;;;;13.02;11.50;;;18.10;77.30;;;;;;10832217;32;19930;-76
2022/10/01 10:14:43;;;;;;;10.98;8.40;;;18.20;77.40;;;;;;10832137;32;20019;-75
2022/10/01 10:20:52;;;;;;;12.40;9.02;;;18.20;76.90;;;;;;10831957;32;20020;-76
2022/10/01 10:26:57;;;;;;;10.55;8.93;;;18.40;77.10;;;;;;10830340;32;20526;-76
2022/10/01 10:33:04;;;;;;;10.93;8.98;;;18.50;77.00;;;;;;10828128;32;20435;-76
2022/10/01 10:39:22;;;;;;;9.18;7.32;;;18.70;76.30;;;;;;10830788;32;20214;-77
2022/10/01 10:45:34;;;;;;;10.20;8.23;;;18.80;76.00;;;;;;10831260;32;20063;-76
2022/10/01 10:52:16;;;;;;;9.15;7.30;;;18.90;74.30;;;;;;10813732;33;20385;-76
2022/10/01 10:58:18;;;;;;;10.63;7.93;;;18.90;74.10;;;;;;10753104;33;20021;-76
2022/10/01 11:04:27;;;;;;;7.72;5.22;;;18.90;73.80;;;;;;10752911;33;20048;-77
2022/10/01 11:10:41;;;;;;;6.62;4.72;;;19.00;74.00;;;;;;10752901;33;20052;-76
2022/10/01 11:17:18;;;;;;;7.95;5.80;;;19.20;73.10;;;;;;10752943;33;20047;-76
2022/10/01 11:23:38;;;;;;;11.80;6.90;;;19.20;72.60;;;;;;10641560;33;20045;-77
2022/10/01 11:29:46;;;;;;;11.73;7.78;;;19.30;72.70;;;;;;10644159;33;20048;-76
2022/10/01 11:36:34;;;;;;;9.88;6.68;;;19.40;72.40;;;;;;10679958;33;20059;-76
2022/10/01 11:42:42;;;;;;;13.30;9.90;;;19.50;72.20;;;;;;10572881;33;20062;-76
2022/10/01 11:48:56;;;;;;;16.15;11.40;;;19.40;71.80;;;;;;10574853;33;20399;-75
2022/10/01 12:01:45;;;;;;;17.02;12.50;;;19.40;72.50;;;;;;10755148;33;20059;-77
2022/10/01 12:07:52;;;;;;;18.83;15.70;;;19.50;72.30;;;;;;10760102;33;20043;-77
2022/10/01 12:14:16;;;;;;;13.27;9.88;;;19.50;72.40;;;;;;10796454;33;20056;-76
2022/10/01 12:21:00;;;;;;;17.98;14.77;;;19.80;72.40;;;;;;10799427;33;20050;-78
2022/10/01 12:27:18;;;;;;;18.65;13.27;;;20.00;72.10;;;;;;10796573;33;20071;-77
2022/10/01 12:33:36;;;;;;;12.95;9.27;;;20.00;71.00;;;;;;10799050;33;20345;-76
2022/10/01 12:40:02;;;;;;;12.50;10.23;;;20.00;70.80;;;;;;10796808;33;20047;-77
2022/10/01 12:46:54;;;;;;;17.02;13.43;;;20.10;70.10;;;;;;10797426;33;20392;-77
2022/10/01 12:53:04;;;;;;;14.25;10.00;;;20.10;69.40;;;;;;10650218;33;20033;-76
2022/10/01 12:59:31;;;;;;;13.35;9.90;;;20.10;69.20;;;;;;10648803;33;20038;-76
2022/10/01 13:06:19;;;;;;;13.55;10.27;;;20.10;69.20;;;;;;10648699;33;20061;-75
2022/10/01 13:12:43;;;;;;;12.07;8.50;;;20.20;69.40;;;;;;10648381;33;20068;-75
2022/10/01 13:18:57;;;;;;;15.05;9.30;;;20.30;69.00;;;;;;10648257;33;20041;-74
2022/10/01 13:25:14;;;;;;;12.57;9.63;;;20.30;67.90;;;;;;10644775;33;20041;-73
2022/10/01 13:31:20;;;;;;;8.98;5.30;;;20.30;68.40;;;;;;10796637;33;20050;-71
2022/10/01 13:37:34;;;;;;;6.50;4.18;;;20.30;68.10;;;;;;10796452;33;20441;-72
2022/10/01 13:43:37;;;;;;;9.75;5.40;;;20.30;68.00;;;;;;10796327;33;20036;-71
2022/10/01 13:49:41;;;;;;;8.40;5.78;;;20.30;67.20;;;;;;10796170;33;20025;-73
2022/10/01 13:55:45;;;;;;;6.32;4.90;;;20.30;67.10;;;;;;10796183;33;20330;-72
2022/10/01 14:01:47;;;;;;;7.32;4.85;;;20.60;66.80;;;;;;10795973;33;20020;-71
2022/10/01 14:07:58;;;;;;;10.63;7.50;;;20.80;66.50;;;;;;10804066;32;20504;-73
2022/10/01 14:20:47;;;;;;;7.30;5.20;;;20.80;65.20;;;;;;10774732;32;20047;-74
2022/10/01 14:27:23;;;;;;;6.20;4.33;;;20.80;64.10;;;;;;10773092;33;20052;-72
2022/10/01 14:34:10;;;;;;;6.82;5.05;;;20.80;64.70;;;;;;10769660;33;20060;-71
2022/10/01 14:40:21;;;;;;;7.45;4.25;;;20.80;64.90;;;;;;10760796;33;20114;-74
2022/10/01 14:46:23;;;;;;;5.70;3.75;;;20.80;64.30;;;;;;10762247;33;20420;-72
2022/10/01 14:52:28;;;;;;;4.65;3.15;;;20.70;64.50;;;;;;10775549;33;20063;-71
2022/10/01 14:58:40;;;;;;;4.25;2.55;;;20.70;64.80;;;;;;10781463;33;20345;-72
2022/10/01 15:04:51;;;;;;;7.87;4.25;;;20.80;64.20;;;;;;10780985;33;20079;-71
2022/10/01 15:11:00;;;;;;;5.53;3.47;;;20.80;63.90;;;;;;10765378;33;20032;-72
2022/10/01 15:17:21;;;;;;;4.25;2.70;;;21.00;64.10;;;;;;10768957;33;20040;-71
2022/10/01 15:23:25;;;;;;;4.85;3.25;;;21.50;62.60;;;;;;10760038;33;20059;-71
2022/10/01 15:29:27;;;;;;;3.47;2.40;;;21.50;62.50;;;;;;10790028;32;20050;-71
2022/10/01 15:35:29;;;;;;;5.57;2.25;;;22.30;61.40;;;;;;10777049;33;20024;-71
2022/10/01 15:41:32;;;;;;;2.47;1.67;;;23.10;59.10;;;;;;10763524;33;20365;-71
2022/10/01 15:47:57;;;;;;;1.85;1.15;;;24.00;57.90;;;;;;10768346;33;20580;-72
2022/10/01 15:54:14;;;;;;;2.53;1.60;;;24.50;56.90;;;;;;10771383;33;20151;-72
2022/10/01 16:00:25;;;;;;;1.80;1.27;;;24.80;56.50;;;;;;10782111;33;20055;-73
2022/10/01 16:06:44;;;;;;;2.22;1.73;;;25.00;55.40;;;;;;10764802;33;20036;-72
2022/10/01 16:12:46;;;;;;;1.45;0.98;;;25.10;55.40;;;;;;10755670;33;20390;-71
2022/10/01 16:19:18;;;;;;;2.33;1.48;;;24.80;55.70;;;;;;10771067;33;20037;-71
2022/10/01 16:25:31;;;;;;;6.25;2.22;;;23.60;57.40;;;;;;10760380;33;20032;-72
2022/10/01 16:31:42;;;;;;;6.07;3.05;;;22.30;60.00;;;;;;10755598;33;20075;-72
2022/10/01 16:37:49;;;;;;;3.90;2.20;;;21.60;61.60;;;;;;10767572;33;20059;-71
2022/10/01 16:44:05;;;;;;;2.67;2.17;;;21.10;62.30;;;;;;10777140;33;20349;-72
2022/10/01 16:50:13;;;;;;;4.28;2.10;;;20.80;63.20;;;;;;10790009;33;20040;-72
2022/10/01 16:56:15;;;;;;;2.92;2.05;;;20.60;63.80;;;;;;10795341;33;20052;-73
2022/10/01 17:02:17;;;;;;;3.87;2.53;;;20.40;64.20;;;;;;10795513;33;20321;-71
2022/10/01 17:08:19;;;;;;;3.95;2.05;;;20.20;64.80;;;;;;10798101;33;20051;-74
2022/10/01 17:14:22;;;;;;;2.60;1.77;;;20.10;65.30;;;;;;10784872;33;20033;-72
2022/10/01 17:20:29;;;;;;;3.95;2.08;;;20.10;65.80;;;;;;10796586;33;20024;-72
2022/10/01 17:26:32;;;;;;;3.28;2.20;;;20.00;66.00;;;;;;10747084;33;20353;-72
2022/10/01 17:32:51;;;;;;;3.75;2.35;;;19.90;66.50;;;;;;10760227;33;20070;-74
2022/10/01 17:38:54;;;;;;;2.25;1.83;;;19.80;66.80;;;;;;10755969;33;20037;-74
2022/10/01 17:44:57;;;;;;;5.70;3.08;;;19.80;67.20;;;;;;10759021;33;20033;-74
2022/10/01 17:51:08;;;;;;;3.83;2.55;;;19.80;67.50;;;;;;10754988;33;20173;-74
2022/10/01 17:57:32;;;;;;;4.62;2.58;;;19.70;67.70;;;;;;10759219;33;20428;-72
2022/10/01 18:03:35;;;;;;;3.75;2.83;;;19.60;67.90;;;;;;10755081;33;20045;-73
2022/10/01 18:09:59;;;;;;;4.53;2.90;;;19.50;68.30;;;;;;10759073;33;20432;-73
2022/10/01 18:16:13;;;;;;;3.83;2.55;;;19.50;68.50;;;;;;10758784;33;20048;-73
2022/10/01 18:22:50;;;;;;;3.78;2.78;;;19.40;68.70;;;;;;10754673;33;20382;-72
2022/10/01 18:28:53;;;;;;;3.45;2.53;;;19.40;68.80;;;;;;10758172;33;20307;-72
2022/10/01 18:35:00;;;;;;;4.93;2.42;;;19.30;68.90;;;;;;10758052;33;20052;-73
2022/10/01 18:41:32;;;;;;;5.87;2.17;;;19.30;69.10;;;;;;10758027;33;20059;-72
2022/10/01 18:47:34;;;;;;;4.25;2.70;;;19.30;69.30;;;;;;10763256;33;20024;-73
2022/10/01 18:54:07;;;;;;;4.22;2.83;;;19.20;69.50;;;;;;10754122;33;20082;-73
2022/10/01 19:00:15;;;;;;;5.40;3.40;;;19.10;70.30;;;;;;10756724;33;20016;-73
2022/10/01 19:06:55;;;;;;;4.27;3.03;;;19.00;71.10;;;;;;10757252;33;20032;-72
2022/10/01 19:13:10;;;;;;;6.20;3.58;;;18.90;71.40;;;;;;10756892;33;20028;-73
2022/10/01 19:19:37;;;;;;;4.97;3.08;;;18.90;71.70;;;;;;10756627;33;20325;-73
2022/10/01 19:25:56;;;;;;;6.95;3.17;;;18.90;71.90;;;;;;10756883;33;20024;-73
2022/10/01 19:32:00;;;;;;;5.25;3.10;;;18.80;72.10;;;;;;10756709;33;20352;-73
2022/10/01 19:38:17;;;;;;;4.37;2.87;;;18.80;72.40;;;;;;10755773;33;20055;-73
2022/10/01 19:44:31;;;;;;;4.43;2.95;;;18.80;72.80;;;;;;10752357;33;20036;-72
2022/10/01 19:50:38;;;;;;;5.22;2.92;;;18.70;73.20;;;;;;10756367;33;20406;-73
2022/10/01 19:56:51;;;;;;;3.35;2.67;;;18.70;73.50;;;;;;10756316;33;20017;-73
2022/10/01 20:03:10;;;;;;;5.40;3.30;;;18.60;73.50;;;;;;10755940;33;20063;-73
2022/10/01 20:09:27;;;;;;;9.30;3.78;;;18.50;74.10;;;;;;10756926;33;20024;-74
2022/10/01 20:16:12;;;;;;;5.70;3.25;;;18.40;74.60;;;;;;10758950;33;20383;-73
2022/10/01 20:22:21;;;;;;;5.80;3.37;;;18.40;74.70;;;;;;10762977;33;20350;-73
2022/10/01 20:28:41;;;;;;;4.60;3.28;;;18.30;74.70;;;;;;10758901;33;20321;-74
2022/10/01 20:35:11;;;;;;;8.50;4.35;;;18.30;75.10;;;;;;10762697;33;20390;-74
2022/10/01 20:41:19;;;;;;;7.12;3.83;;;18.20;75.70;;;;;;10773352;33;20384;-73
2022/10/01 20:47:32;;;;;;;5.82;2.87;;;18.10;76.00;;;;;;10760450;33;20052;-73
2022/10/01 20:53:49;;;;;;;5.65;3.80;;;18.10;75.80;;;;;;10761829;33;20337;-73
2022/10/01 20:59:54;;;;;;;5.50;4.18;;;18.00;75.80;;;;;;10756813;33;20020;-72
2022/10/01 21:06:16;;;;;;;6.75;4.85;;;18.00;75.80;;;;;;10758787;33;20090;-73
2022/10/01 21:12:21;;;;;;;4.75;3.45;;;18.00;75.80;;;;;;10773073;33;20021;-73
2022/10/01 21:18:46;;;;;;;6.65;4.28;;;18.00;75.80;;;;;;10772040;32;20325;-74
2022/10/01 21:25:11;;;;;;;5.53;4.05;;;18.00;76.20;;;;;;10760246;33;20017;-73
2022/10/01 21:31:55;;;;;;;7.37;4.28;;;17.90;76.80;;;;;;10760576;33;20029;-73
2022/10/01 21:38:10;;;;;;;8.73;4.43;;;17.80;76.80;;;;;;10756266;33;20043;-73
2022/10/01 21:44:33;;;;;;;7.50;5.22;;;17.80;76.90;;;;;;10759975;33;20306;-73
2022/10/01 21:51:02;;;;;;;8.10;5.20;;;17.80;76.80;;;;;;10760003;33;20021;-73
2022/10/01 21:57:23;;;;;;;;;;;17.80;76.90;;;;;;10716672;33;20048;-73
2022/10/01 22:03:36;;;;;;;9.52;5.68;;;17.80;77.10;;;;;;10715082;33;19939;-73
2022/10/01 22:10:12;;;;;;;8.63;4.62;;;17.70;77.20;;;;;;10718827;33;20029;-73
2022/10/01 22:16:15;;;;;;;6.22;3.80;;;17.70;77.40;;;;;;10743653;27;20456;-73
2022/10/01 22:22:34;;;;;;;8.40;4.80;;;17.70;77.40;;;;;;10730655;33;20033;-73
2022/10/01 22:28:53;;;;;;;6.82;5.10;;;17.70;77.40;;;;;;10707281;33;20148;-73
2022/10/01 22:35:20;;;;;;;6.28;4.25;;;17.50;77.40;;;;;;10790666;33;20024;-73
2022/10/01 22:41:32;;;;;;;9.52;4.25;;;17.60;77.70;;;;;;10794619;33;20385;-74
2022/10/01 22:48:03;;;;;;;6.70;4.90;;;17.50;77.80;;;;;;10794717;33;20058;-74
2022/10/01 22:54:23;;;;;;;7.72;6.03;;;17.50;77.80;;;;;;10794596;33;20475;-73
2022/10/01 23:00:26;;;;;;;7.12;4.85;;;17.40;78.20;;;;;;10794092;33;20393;-75
2022/10/01 23:06:42;;;;;;;5.93;4.05;;;17.40;78.10;;;;;;10805220;32;20021;-75
2022/10/01 23:13:00;;;;;;;9.07;5.80;;;17.30;78.10;;;;;;10793921;33;20028;-75
2022/10/01 23:19:17;;;;;;;7.12;5.18;;;17.30;78.40;;;;;;10793634;33;20020;-77
2022/10/01 23:26:06;;;;;;;10.52;4.45;;;17.20;78.40;;;;;;10793518;33;20043;-75
2022/10/01 23:32:23;;;;;;;8.17;5.90;;;17.10;78.30;;;;;;10717387;33;20025;-76
2022/10/01 23:38:37;;;;;;;9.10;6.37;;;17.10;78.70;;;;;;10716714;33;20047;-75
2022/10/01 23:44:48;;;;;;;6.43;4.57;;;17.10;79.10;;;;;;10719425;33;20333;-75
2022/10/01 23:50:58;;;;;;;9.50;6.00;;;17.10;79.00;;;;;;10724314;33;20037;-75
2022/10/01 23:57:21;;;;;;;6.87;4.93;;;17.00;78.90;;;;;;10728429;33;20353;-75
